Time;durP1;ratioP1;P1;durP2;ratioP2;P2;SDS_P1;SDS_P2;PMS_P1;PMS_P2;Temp;Humidity;BMP_temperature;BMP_pressure;BME280_temperature;BME280_humidity;BME280_pressure;Samples;Min_cycle;Max_cycle;Signal;HPM_P1;HPM_P2
2022/05/11 00:01:32;;;;;;;11.23;6.05;;;;;;;;;;5091668;28;20036;-77
2022/05/11 00:03:59;;;;;;;11.50;5.82;;;;;;;;;;5104239;28;20066;-77
2022/05/11 00:06:26;;;;;;;11.90;6.47;;;;;;;;;;5096207;28;20039;-77
2022/05/11 00:08:56;;;;;;;9.45;5.55;;;;;;;;;;5095390;28;20044;-77
2022/05/11 00:11:23;;;;;;;10.18;6.10;;;;;;;;;;5104092;28;20044;-77
2022/05/11 00:13:49;;;;;;;12.45;6.72;;;;;;;;;;5092063;28;20055;-77
2022/05/11 00:16:16;;;;;;;14.60;6.95;;;;;;;;;;5099496;28;20043;-77
2022/05/11 00:18:42;;;;;;;11.10;6.43;;;;;;;;;;5100335;28;20093;-77
2022/05/11 00:21:08;;;;;;;12.57;7.57;;;;;;;;;;5091620;28;20036;-77
2022/05/11 00:23:35;;;;;;;12.77;6.05;;;;;;;;;;5074896;28;20040;-77
2022/05/11 00:26:01;;;;;;;13.77;6.70;;;;;;;;;;5089510;28;20040;-77
2022/05/11 00:28:28;;;;;;;10.75;6.47;;;;;;;;;;5079316;28;20430;-77
2022/05/11 00:30:54;;;;;;;12.88;6.50;;;;;;;;;;5103301;28;20042;-77
2022/05/11 00:33:20;;;;;;;13.10;6.55;;;;;;;;;;5104698;28;20040;-77
2022/05/11 00:35:48;;;;;;;10.45;6.18;;;;;;;;;;5094247;28;20114;-77
2022/05/11 00:38:15;;;;;;;12.98;5.95;;;;;;;;;;5096204;28;20036;-77
2022/05/11 00:40:50;;;;;;;11.02;6.63;;;;;;;;;;5085705;28;20059;-77
2022/05/11 00:43:26;;;;;;;12.20;7.13;;;;;;;;;;5074969;28;20075;-77
2022/05/11 00:45:52;;;;;;;11.13;6.53;;;;;;;;;;5098523;28;20079;-77
2022/05/11 00:51:09;;;;;;;12.13;6.15;;;;;;;;;;5074958;28;20104;-77
2022/05/11 00:53:36;;;;;;;12.05;6.47;;;;;;;;;;5099160;28;20065;-77
2022/05/11 00:56:03;;;;;;;11.32;6.57;;;;;;;;;;5099350;28;20036;-77
2022/05/11 00:58:49;;;;;;;12.93;6.70;;;;;;;;;;5091042;28;20037;-77
2022/05/11 01:01:15;;;;;;;10.20;5.68;;;;;;;;;;5063045;28;20032;-77
2022/05/11 01:03:50;;;;;;;11.25;6.30;;;;;;;;;;5097058;28;20130;-77
2022/05/11 01:06:16;;;;;;;;;;;;;;;;;;5105458;28;20035;-77
2022/05/11 01:08:42;;;;;;;9.90;5.45;;;;;;;;;;5081218;28;20386;-77
2022/05/11 01:11:08;;;;;;;9.85;6.05;;;;;;;;;;5111579;28;20043;-77
2022/05/11 01:13:36;;;;;;;10.85;6.45;;;;;;;;;;5100515;28;20086;-77
2022/05/11 01:16:02;;;;;;;12.25;6.50;;;;;;;;;;5105767;28;20115;-77
2022/05/11 01:18:30;;;;;;;9.98;6.35;;;;;;;;;;5094987;28;20440;-77
2022/05/11 01:20:56;;;;;;;12.63;6.47;;;;;;;;;;5104485;28;20097;-77
2022/05/11 01:23:41;;;;;;;10.73;5.95;;;;;;;;;;5101511;28;20444;-77
2022/05/11 01:26:07;;;;;;;11.25;5.35;;;;;;;;;;5094523;28;20173;-77
2022/05/11 01:28:40;;;;;;;10.05;5.95;;;;;;;;;;5106650;28;20101;-77
2022/05/11 01:31:08;;;;;;;8.77;5.35;;;;;;;;;;5100378;28;20163;-77
2022/05/11 01:33:35;;;;;;;10.73;6.28;;;;;;;;;;5097480;28;20044;-77
2022/05/11 01:36:25;;;;;;;11.38;5.53;;;;;;;;;;5107006;28;20435;-77
2022/05/11 01:38:52;;;;;;;9.77;5.60;;;;;;;;;;5099163;28;20036;-77
2022/05/11 01:41:28;;;;;;;10.50;5.80;;;;;;;;;;5081537;28;20067;-77
2022/05/11 01:43:54;;;;;;;8.93;5.53;;;;;;;;;;5089906;28;20036;-77
2022/05/11 01:46:20;;;;;;;9.70;5.43;;;;;;;;;;5095712;28;20081;-77
2022/05/11 01:48:47;;;;;;;8.80;4.60;;;;;;;;;;5084741;28;20051;-77
2022/05/11 01:51:13;;;;;;;8.02;5.15;;;;;;;;;;5103412;28;20044;-77
2022/05/11 01:53:40;;;;;;;10.82;5.35;;;;;;;;;;5093470;28;20036;-77
2022/05/11 01:56:06;;;;;;;10.80;5.55;;;;;;;;;;5094956;28;20044;-77
2022/05/11 01:58:33;;;;;;;8.68;4.97;;;;;;;;;;5101904;28;20090;-77
2022/05/11 02:00:59;;;;;;;9.98;5.43;;;;;;;;;;5102622;28;20036;-76
2022/05/11 02:03:26;;;;;;;8.13;5.00;;;;;;;;;;5087478;28;20630;-77
2022/05/11 02:08:38;;;;;;;9.35;5.43;;;;;;;;;;5099764;28;20054;-77
2022/05/11 02:11:05;;;;;;;8.88;5.18;;;;;;;;;;5104906;28;20130;-76
2022/05/11 02:13:32;;;;;;;8.57;4.90;;;;;;;;;;5089187;28;20047;-77
2022/05/11 02:15:58;;;;;;;9.95;5.30;;;;;;;;;;5103992;28;20032;-77
2022/05/11 02:18:25;;;;;;;9.60;5.03;;;;;;;;;;5099152;28;20035;-76
2022/05/11 02:20:51;;;;;;;11.10;5.47;;;;;;;;;;5095765;28;20305;-76
2022/05/11 02:23:18;;;;;;;10.10;5.75;;;;;;;;;;5106412;28;20427;-76
2022/05/11 02:25:45;;;;;;;11.10;5.00;;;;;;;;;;5095451;28;20039;-77
2022/05/11 02:28:12;;;;;;;11.68;5.47;;;;;;;;;;5100216;28;20126;-77
2022/05/11 02:30:39;;;;;;;11.27;5.32;;;;;;;;;;5086422;28;20044;-77
2022/05/11 02:33:06;;;;;;;9.98;4.70;;;;;;;;;;5089558;28;20166;-76
2022/05/11 02:35:33;;;;;;;10.13;4.72;;;;;;;;;;5104141;28;20104;-76
2022/05/11 02:38:01;;;;;;;8.65;5.20;;;;;;;;;;5098961;28;20092;-77
2022/05/11 02:40:31;;;;;;;12.35;5.80;;;;;;;;;;5096126;28;20044;-76
2022/05/11 02:42:58;;;;;;;8.00;5.20;;;;;;;;;;5089167;28;20050;-77
2022/05/11 02:45:25;;;;;;;11.13;5.07;;;;;;;;;;5095230;28;20558;-77
2022/05/11 02:47:52;;;;;;;9.45;5.20;;;;;;;;;;5099785;28;20047;-76
2022/05/11 02:50:20;;;;;;;9.20;5.03;;;;;;;;;;5086497;28;20045;-76
2022/05/11 02:52:46;;;;;;;10.32;5.25;;;;;;;;;;5076067;28;20051;-76
2022/05/11 02:55:13;;;;;;;8.00;4.72;;;;;;;;;;5104293;28;20067;-77
2022/05/11 02:57:39;;;;;;;10.32;5.38;;;;;;;;;;5098696;28;20039;-76
2022/05/11 03:00:09;;;;;;;10.45;5.35;;;;;;;;;;5095737;28;20047;-76
2022/05/11 03:02:36;;;;;;;8.57;5.20;;;;;;;;;;5105393;28;20044;-76
2022/05/11 03:05:02;;;;;;;8.77;4.95;;;;;;;;;;5094249;28;20043;-77
2022/05/11 03:07:29;;;;;;;8.07;4.70;;;;;;;;;;5099778;28;20072;-77
2022/05/11 03:09:55;;;;;;;12.63;4.97;;;;;;;;;;5102155;28;20122;-77
2022/05/11 03:12:24;;;;;;;9.45;5.25;;;;;;;;;;5092942;28;20095;-77
2022/05/11 03:14:53;;;;;;;11.60;5.05;;;;;;;;;;5092069;28;20069;-77
2022/05/11 03:17:19;;;;;;;10.15;4.50;;;;;;;;;;5099794;28;20036;-77
2022/05/11 03:19:46;;;;;;;12.70;5.20;;;;;;;;;;5083997;28;20040;-77
2022/05/11 03:22:15;;;;;;;7.32;4.47;;;;;;;;;;5100960;28;20327;-77
2022/05/11 03:24:41;;;;;;;10.57;5.18;;;;;;;;;;5082555;28;20393;-77
2022/05/11 03:27:07;;;;;;;10.35;5.03;;;;;;;;;;5105348;28;20119;-77
2022/05/11 03:29:33;;;;;;;9.07;5.30;;;;;;;;;;5076381;28;20045;-77
2022/05/11 03:34:45;;;;;;;10.73;4.55;;;;;;;;;;5087111;28;20044;-76
2022/05/11 03:37:15;;;;;;;10.73;4.90;;;;;;;;;;5098390;28;20039;-77
2022/05/11 03:39:42;;;;;;;9.23;5.05;;;;;;;;;;5108670;28;20047;-77
2022/05/11 03:42:11;;;;;;;12.00;5.47;;;;;;;;;;5089485;28;20407;-77
2022/05/11 03:44:37;;;;;;;10.02;5.57;;;;;;;;;;5072914;28;20077;-76
2022/05/11 03:47:03;;;;;;;10.18;5.47;;;;;;;;;;5077745;28;20078;-77
2022/05/11 03:49:30;;;;;;;10.13;5.40;;;;;;;;;;5092828;28;20040;-77
2022/05/11 03:51:57;;;;;;;11.75;5.75;;;;;;;;;;5105030;28;20048;-76
2022/05/11 03:54:23;;;;;;;10.93;5.47;;;;;;;;;;5092086;28;20039;-77
2022/05/11 03:56:49;;;;;;;13.02;5.82;;;;;;;;;;5084037;28;20082;-76
2022/05/11 03:59:16;;;;;;;10.82;5.15;;;;;;;;;;5101245;28;20269;-76
2022/05/11 04:01:42;;;;;;;10.00;5.47;;;;;;;;;;5065814;28;20032;-76
2022/05/11 04:04:08;;;;;;;11.65;5.90;;;;;;;;;;5094127;28;20082;-77
2022/05/11 04:06:35;;;;;;;9.43;5.32;;;;;;;;;;5092504;28;20494;-77
2022/05/11 04:09:01;;;;;;;9.50;5.13;;;;;;;;;;5093682;28;20048;-76
2022/05/11 04:11:28;;;;;;;9.82;4.82;;;;;;;;;;5104073;28;20069;-76
2022/05/11 04:13:55;;;;;;;11.30;5.10;;;;;;;;;;5076385;28;20036;-76
2022/05/11 04:16:22;;;;;;;9.32;4.88;;;;;;;;;;5081410;28;20391;-76
2022/05/11 04:18:48;;;;;;;10.85;5.22;;;;;;;;;;5080869;28;20392;-77
2022/05/11 04:21:14;;;;;;;7.95;4.28;;;;;;;;;;5091052;28;20043;-77
2022/05/11 04:23:41;;;;;;;8.98;5.03;;;;;;;;;;5102875;28;20036;-78
2022/05/11 04:26:12;;;;;;;9.93;4.93;;;;;;;;;;5078765;28;20055;-77
2022/05/11 04:28:51;;;;;;;9.80;4.95;;;;;;;;;;5065931;28;20040;-76
2022/05/11 04:31:17;;;;;;;11.07;5.20;;;;;;;;;;5087945;28;20043;-76
2022/05/11 04:33:43;;;;;;;10.32;4.78;;;;;;;;;;5088161;28;20055;-77
2022/05/11 04:36:09;;;;;;;10.50;5.25;;;;;;;;;;5063360;28;20056;-77
2022/05/11 04:38:35;;;;;;;10.50;5.13;;;;;;;;;;5097126;28;20502;-76
2022/05/11 04:41:02;;;;;;;9.43;4.40;;;;;;;;;;5101365;28;20039;-76
2022/05/11 04:43:29;;;;;;;9.05;5.00;;;;;;;;;;5080182;28;20043;-77
2022/05/11 04:45:57;;;;;;;10.52;4.82;;;;;;;;;;5083857;28;20076;-77
2022/05/11 04:48:23;;;;;;;7.88;4.47;;;;;;;;;;5079159;28;20070;-77
2022/05/11 04:50:49;;;;;;;10.18;4.82;;;;;;;;;;5075913;28;20551;-77
2022/05/11 04:53:16;;;;;;;10.18;4.72;;;;;;;;;;5084727;28;20500;-76
2022/05/11 04:55:44;;;;;;;9.75;4.30;;;;;;;;;;5082191;28;20036;-76
2022/05/11 04:58:10;;;;;;;12.00;5.30;;;;;;;;;;5090404;28;20043;-77
2022/05/11 05:00:36;;;;;;;11.30;4.50;;;;;;;;;;5074322;28;20098;-76
2022/05/11 05:03:07;;;;;;;11.52;4.70;;;;;;;;;;5088970;28;20043;-76
2022/05/11 05:05:34;;;;;;;9.93;4.60;;;;;;;;;;5086178;28;20045;-76
2022/05/11 05:08:00;;;;;;;9.02;4.38;;;;;;;;;;5071682;28;20043;-77
2022/05/11 05:10:26;;;;;;;9.48;4.32;;;;;;;;;;5102435;28;20051;-77
2022/05/11 05:12:52;;;;;;;9.10;4.70;;;;;;;;;;5092341;28;20100;-76
2022/05/11 05:15:18;;;;;;;12.10;4.60;;;;;;;;;;5091911;28;20484;-77
2022/05/11 05:17:44;;;;;;;10.80;5.20;;;;;;;;;;5094940;28;20073;-77
2022/05/11 05:20:12;;;;;;;12.18;5.53;;;;;;;;;;5077548;28;20047;-76
2022/05/11 05:22:39;;;;;;;12.88;5.57;;;;;;;;;;5077265;28;20032;-77
2022/05/11 05:25:06;;;;;;;9.70;4.65;;;;;;;;;;5077438;28;20122;-77
2022/05/11 05:27:32;;;;;;;11.38;4.43;;;;;;;;;;5086483;28;20585;-76
2022/05/11 05:32:44;;;;;;;9.57;4.90;;;;;;;;;;5080225;28;20391;-77
2022/05/11 05:35:12;;;;;;;10.90;4.93;;;;;;;;;;5082013;28;20059;-76
2022/05/11 05:37:39;;;;;;;11.90;4.90;;;;;;;;;;5087296;28;20047;-77
2022/05/11 05:40:06;;;;;;;10.20;4.70;;;;;;;;;;5089717;28;20090;-77
2022/05/11 05:42:32;;;;;;;9.23;4.80;;;;;;;;;;5077925;28;20056;-76
2022/05/11 05:44:58;;;;;;;12.10;5.05;;;;;;;;;;5088201;28;20032;-77
2022/05/11 05:47:25;;;;;;;8.82;4.43;;;;;;;;;;5089410;28;20376;-78
2022/05/11 05:49:51;;;;;;;10.73;5.03;;;;;;;;;;5105340;28;20036;-76
2022/05/11 05:52:18;;;;;;;9.55;5.05;;;;;;;;;;5089572;28;20040;-76
2022/05/11 05:54:45;;;;;;;11.73;4.43;;;;;;;;;;5095860;28;20037;-75
2022/05/11 05:57:12;;;;;;;12.32;4.72;;;;;;;;;;5075161;28;20040;-76
2022/05/11 05:59:38;;;;;;;10.45;5.10;;;;;;;;;;5110110;28;20043;-75
2022/05/11 06:02:08;;;;;;;11.60;5.53;;;;;;;;;;5106491;28;20085;-76
2022/05/11 06:04:34;;;;;;;10.50;5.90;;;;;;;;;;5097733;28;20211;-76
2022/05/11 06:07:01;;;;;;;11.45;5.45;;;;;;;;;;5090681;28;20043;-75
2022/05/11 06:09:33;;;;;;;12.00;5.53;;;;;;;;;;5091349;28;20051;-76
2022/05/11 06:11:59;;;;;;;10.98;5.05;;;;;;;;;;5086818;28;20389;-76
2022/05/11 06:14:26;;;;;;;9.60;5.30;;;;;;;;;;5091163;28;20036;-75
2022/05/11 06:16:53;;;;;;;11.27;5.10;;;;;;;;;;5092239;28;20036;-76
2022/05/11 06:19:20;;;;;;;11.25;5.50;;;;;;;;;;5092624;28;20040;-75
2022/05/11 06:21:48;;;;;;;11.60;5.53;;;;;;;;;;5077197;28;20063;-76
2022/05/11 06:24:14;;;;;;;12.63;5.60;;;;;;;;;;5092110;28;20066;-76
2022/05/11 06:26:41;;;;;;;12.15;6.18;;;;;;;;;;5112533;28;20066;-76
2022/05/11 06:29:08;;;;;;;12.40;5.80;;;;;;;;;;5091892;28;20044;-76
2022/05/11 06:31:34;;;;;;;11.68;6.38;;;;;;;;;;5055098;28;20070;-76
2022/05/11 06:34:00;;;;;;;11.02;5.85;;;;;;;;;;5071697;28;20036;-75
2022/05/11 06:36:26;;;;;;;11.55;5.90;;;;;;;;;;5071724;28;20063;-76
2022/05/11 06:38:53;;;;;;;10.85;5.70;;;;;;;;;;5105966;28;20435;-75
2022/05/11 06:41:22;;;;;;;15.63;6.30;;;;;;;;;;5096733;28;20054;-75
2022/05/11 06:43:51;;;;;;;12.23;5.97;;;;;;;;;;5095402;28;20043;-75
2022/05/11 06:46:17;;;;;;;14.10;7.10;;;;;;;;;;5081365;28;20126;-76
2022/05/11 06:48:45;;;;;;;12.20;5.88;;;;;;;;;;5074870;28;20092;-75
2022/05/11 06:51:12;;;;;;;14.40;6.00;;;;;;;;;;5097067;28;20035;-76
2022/05/11 06:59:20;;;;;;;13.57;6.18;;;;;;;;;;5085152;28;20133;-75
2022/05/11 07:01:47;;;;;;;13.43;6.40;;;;;;;;;;5084312;28;20446;-77
2022/05/11 07:04:13;;;;;;;13.32;6.22;;;;;;;;;;5072902;28;20044;-76
2022/05/11 07:06:39;;;;;;;14.40;6.10;;;;;;;;;;5084050;28;20518;-76
2022/05/11 07:09:05;;;;;;;11.90;6.28;;;;;;;;;;5104534;28;20043;-76
2022/05/11 07:14:16;;;;;;;14.60;5.88;;;;;;;;;;5083287;28;20070;-75
2022/05/11 07:16:43;;;;;;;13.73;6.32;;;;;;;;;;5091437;28;20475;-76
2022/05/11 07:19:09;;;;;;;14.60;6.53;;;;;;;;;;5085850;28;20032;-76
2022/05/11 07:21:36;;;;;;;12.82;5.53;;;;;;;;;;5091088;28;20460;-76
2022/05/11 07:24:03;;;;;;;13.43;5.93;;;;;;;;;;5074024;28;20044;-76
2022/05/11 07:26:29;;;;;;;10.10;5.85;;;;;;;;;;5079492;28;20050;-76
2022/05/11 07:28:55;;;;;;;13.50;6.50;;;;;;;;;;5102838;28;20037;-76
2022/05/11 07:31:21;;;;;;;14.18;5.88;;;;;;;;;;5096843;28;20043;-76
2022/05/11 07:33:50;;;;;;;11.98;5.43;;;;;;;;;;5084408;28;20531;-75
2022/05/11 07:36:17;;;;;;;13.20;5.75;;;;;;;;;;5068589;28;20079;-78
2022/05/11 07:38:43;;;;;;;12.50;5.63;;;;;;;;;;5090496;28;20108;-77
2022/05/11 07:41:10;;;;;;;10.57;5.28;;;;;;;;;;5111062;28;20399;-77
2022/05/11 07:43:38;;;;;;;11.93;5.45;;;;;;;;;;5111125;28;20448;-78
2022/05/11 07:46:04;;;;;;;11.40;5.45;;;;;;;;;;5082030;28;20039;-78
2022/05/11 07:48:30;;;;;;;13.80;5.53;;;;;;;;;;5084347;28;20055;-79
2022/05/11 07:50:56;;;;;;;12.73;5.45;;;;;;;;;;5094450;28;20077;-79
2022/05/11 07:53:22;;;;;;;11.68;4.32;;;;;;;;;;5086666;28;20048;-79
2022/05/11 07:59:52;;;;;;;14.38;5.68;;;;;;;;;;5070517;28;20685;-81
2022/05/11 08:01:35;;;;;;;14.48;5.22;;;;;;;;;;5076681;28;20040;-77
2022/05/11 08:04:01;;;;;;;14.02;5.47;;;;;;;;;;5074971;28;20036;-78
2022/05/11 08:06:28;;;;;;;12.52;5.07;;;;;;;;;;5080695;28;20605;-78
2022/05/11 08:08:54;;;;;;;13.15;4.47;;;;;;;;;;5076247;28;20439;-78
2022/05/11 08:11:20;;;;;;;11.30;4.57;;;;;;;;;;5089867;28;20135;-78
2022/05/11 08:13:46;;;;;;;9.23;4.07;;;;;;;;;;5080160;28;20058;-77
2022/05/11 08:16:12;;;;;;;10.75;3.97;;;;;;;;;;5083836;28;20535;-81
2022/05/11 08:18:39;;;;;;;11.05;4.57;;;;;;;;;;5081306;28;20041;-81
2022/05/11 08:21:05;;;;;;;10.77;3.80;;;;;;;;;;5062608;28;20381;-78
2022/05/11 08:23:32;;;;;;;12.82;3.67;;;;;;;;;;5103298;28;20039;-81
2022/05/11 08:25:59;;;;;;;10.07;3.50;;;;;;;;;;5081121;28;20044;-80
2022/05/11 08:28:26;;;;;;;12.43;4.10;;;;;;;;;;5095691;28;20040;-78
2022/05/11 08:33:38;;;;;;;13.15;3.50;;;;;;;;;;5101130;28;20051;-79
2022/05/11 08:36:08;;;;;;;11.05;3.45;;;;;;;;;;5095149;28;20044;-80
2022/05/11 08:38:37;;;;;;;8.05;3.25;;;;;;;;;;5102337;28;20089;-80
2022/05/11 08:41:10;;;;;;;9.55;3.38;;;;;;;;;;5074629;28;20088;-80
2022/05/11 08:43:36;;;;;;;11.25;3.63;;;;;;;;;;5083051;28;20117;-80
2022/05/11 08:46:05;;;;;;;9.43;3.25;;;;;;;;;;5083409;28;20039;-79
2022/05/11 08:48:35;;;;;;;13.35;3.38;;;;;;;;;;5095082;28;20131;-80
2022/05/11 08:51:02;;;;;;;11.15;3.08;;;;;;;;;;5071564;28;20055;-81
2022/05/11 08:53:39;;;;;;;9.10;3.17;;;;;;;;;;5070027;28;20478;-79
2022/05/11 08:56:12;;;;;;;11.38;3.10;;;;;;;;;;5083460;28;20047;-78
2022/05/11 08:58:42;;;;;;;12.07;2.58;;;;;;;;;;5090353;28;20044;-79
2022/05/11 09:01:12;;;;;;;11.75;3.00;;;;;;;;;;5083795;28;20082;-81
2022/05/11 09:03:41;;;;;;;8.93;3.00;;;;;;;;;;5081173;28;20043;-78
2022/05/11 09:06:13;;;;;;;9.73;2.47;;;;;;;;;;5092331;28;20531;-81
2022/05/11 09:08:40;;;;;;;10.45;3.03;;;;;;;;;;5103963;28;20086;-80
2022/05/11 09:11:07;;;;;;;9.57;2.97;;;;;;;;;;5077765;28;20245;-81
2022/05/11 09:13:35;;;;;;;12.75;3.45;;;;;;;;;;5095636;28;20063;-80
2022/05/11 09:16:03;;;;;;;11.40;3.40;;;;;;;;;;5103015;28;20114;-80
2022/05/11 09:18:32;;;;;;;9.35;3.42;;;;;;;;;;5090854;28;20035;-81
2022/05/11 09:21:03;;;;;;;12.70;3.20;;;;;;;;;;5082509;28;20752;-78
2022/05/11 09:23:31;;;;;;;13.63;3.13;;;;;;;;;;5099774;28;20055;-79
2022/05/11 09:25:59;;;;;;;9.10;2.50;;;;;;;;;;5074938;28;20290;-81
2022/05/11 09:28:27;;;;;;;11.88;3.03;;;;;;;;;;5067337;28;20047;-79
2022/05/11 09:31:02;;;;;;;9.48;2.72;;;;;;;;;;5084483;28;20088;-78
2022/05/11 09:33:30;;;;;;;12.93;2.72;;;;;;;;;;5090682;28;20511;-79
2022/05/11 09:35:57;;;;;;;11.80;2.60;;;;;;;;;;5077712;28;20063;-81
2022/05/11 09:38:26;;;;;;;12.63;2.88;;;;;;;;;;5086565;28;20128;-78
2022/05/11 09:40:55;;;;;;;6.80;2.97;;;;;;;;;;5073708;28;20488;-79
2022/05/11 09:43:31;;;;;;;11.65;2.90;;;;;;;;;;5094073;28;20044;-78
2022/05/11 09:45:57;;;;;;;11.40;3.00;;;;;;;;;;5097033;28;20046;-79
2022/05/11 09:48:23;;;;;;;11.77;3.53;;;;;;;;;;5080107;28;20044;-80
2022/05/11 09:50:53;;;;;;;9.43;3.25;;;;;;;;;;5084611;28;20503;-80
2022/05/11 09:53:34;;;;;;;11.75;4.05;;;;;;;;;;5093782;28;20506;-81
2022/05/11 09:56:23;;;;;;;10.27;2.88;;;;;;;;;;5090122;28;20075;-78
2022/05/11 09:58:50;;;;;;;17.05;3.47;;;;;;;;;;5098350;28;20227;-78
2022/05/11 10:01:22;;;;;;;10.60;3.08;;;;;;;;;;5069236;28;20051;-78
2022/05/11 10:03:51;;;;;;;11.15;2.90;;;;;;;;;;5078339;28;20046;-79
2022/05/11 10:06:18;;;;;;;12.10;3.33;;;;;;;;;;5101944;28;20036;-80
2022/05/11 10:08:45;;;;;;;10.38;2.85;;;;;;;;;;5102865;28;20047;-79
2022/05/11 10:11:23;;;;;;;12.35;3.17;;;;;;;;;;5092586;28;20044;-78
2022/05/11 10:13:52;;;;;;;8.95;2.65;;;;;;;;;;5095752;28;20127;-80
2022/05/11 10:22:24;;;;;;;12.20;2.22;;;;;;;;;;5100860;28;20630;-78
2022/05/11 10:25:06;;;;;;;8.70;2.58;;;;;;;;;;5093806;28;20067;-80
2022/05/11 10:27:36;;;;;;;13.23;2.60;;;;;;;;;;5083298;28;20040;-78
2022/05/11 10:30:05;;;;;;;7.82;2.00;;;;;;;;;;5086637;28;20365;-79
2022/05/11 10:32:48;;;;;;;9.52;2.10;;;;;;;;;;5106009;28;20039;-78
2022/05/11 10:35:23;;;;;;;7.30;2.30;;;;;;;;;;5111610;28;20055;-79
2022/05/11 10:37:49;;;;;;;;;;;;;;;;;;5090090;28;20560;-79
2022/05/11 10:40:24;;;;;;;8.60;2.28;;;;;;;;;;5074962;28;19959;-78
2022/05/11 10:43:05;;;;;;;6.97;3.40;;;;;;;;;;5072199;28;20119;-79
2022/05/11 10:45:35;;;;;;;9.32;2.17;;;;;;;;;;5090635;28;20452;-79
2022/05/11 10:48:01;;;;;;;8.02;2.20;;;;;;;;;;5095753;28;20028;-80
2022/05/11 10:50:29;;;;;;;8.55;2.22;;;;;;;;;;5095202;28;20055;-79
2022/05/11 10:52:59;;;;;;;9.02;2.45;;;;;;;;;;5075234;28;20543;-80
2022/05/11 10:55:31;;;;;;;9.82;2.13;;;;;;;;;;5084371;28;20453;-79
2022/05/11 10:57:57;;;;;;;9.48;2.08;;;;;;;;;;5063908;28;20039;-80
2022/05/11 11:00:24;;;;;;;9.18;3.05;;;;;;;;;;5072491;28;20399;-79
2022/05/11 11:02:50;;;;;;;9.57;2.17;;;;;;;;;;5070457;28;20126;-78
2022/05/11 11:05:19;;;;;;;8.00;2.15;;;;;;;;;;5086041;28;20047;-79
2022/05/11 11:08:18;;;;;;;7.00;1.75;;;;;;;;;;5068998;28;20040;-78
2022/05/11 11:10:53;;;;;;;9.00;2.90;;;;;;;;;;5027543;28;20248;-78
2022/05/11 11:13:38;;;;;;;7.80;1.80;;;;;;;;;;5086504;28;20032;-78
2022/05/11 11:16:05;;;;;;;;;;;;;;;;;;5084474;28;20036;-78
2022/05/11 11:18:39;;;;;;;7.45;1.60;;;;;;;;;;5087201;28;19926;-78
2022/05/11 11:21:08;;;;;;;6.13;1.67;;;;;;;;;;5086760;28;20123;-78
2022/05/11 11:23:36;;;;;;;9.25;1.77;;;;;;;;;;5069307;28;20039;-80
2022/05/11 11:26:02;;;;;;;5.95;1.60;;;;;;;;;;5088180;28;20178;-78
2022/05/11 11:28:33;;;;;;;8.10;1.80;;;;;;;;;;5085802;28;20671;-80
2022/05/11 11:30:59;;;;;;;6.20;1.40;;;;;;;;;;5085722;28;20043;-78
2022/05/11 11:33:35;;;;;;;7.75;1.70;;;;;;;;;;5069090;28;20100;-79
2022/05/11 11:36:06;;;;;;;7.75;1.60;;;;;;;;;;5085192;28;20040;-77
2022/05/11 11:38:42;;;;;;;12.30;1.88;;;;;;;;;;5085740;28;20449;-80
2022/05/11 11:41:17;;;;;;;5.03;1.50;;;;;;;;;;5069049;28;20456;-79
2022/05/11 11:43:45;;;;;;;6.93;1.50;;;;;;;;;;5085614;28;20415;-79
2022/05/11 11:46:27;;;;;;;7.97;1.60;;;;;;;;;;5086019;28;20040;-78
2022/05/11 11:49:08;;;;;;;4.75;1.33;;;;;;;;;;5068594;28;20062;-78
2022/05/11 11:51:53;;;;;;;9.27;1.77;;;;;;;;;;5084574;28;20032;-78
2022/05/11 11:54:26;;;;;;;6.63;1.63;;;;;;;;;;5085966;28;20044;-78
2022/05/11 11:56:54;;;;;;;6.93;1.80;;;;;;;;;;5066437;28;20031;-77
2022/05/11 11:59:24;;;;;;;7.07;1.65;;;;;;;;;;5085461;28;20047;-77
2022/05/11 12:01:52;;;;;;;7.55;1.83;;;;;;;;;;5084758;28;20035;-80
2022/05/11 12:04:23;;;;;;;8.55;1.70;;;;;;;;;;5086684;28;20042;-77
2022/05/11 12:15:30;;;;;;;5.40;1.42;;;;;;;;;;5090994;28;20040;-74
2022/05/11 12:17:56;;;;;;;6.97;1.83;;;;;;;;;;5083341;28;20043;-75
2022/05/11 12:20:23;;;;;;;6.93;1.80;;;;;;;;;;5099393;28;20039;-75
2022/05/11 12:22:51;;;;;;;9.18;2.13;;;;;;;;;;5092076;28;20036;-74
2022/05/11 12:25:31;;;;;;;6.82;1.50;;;;;;;;;;5103157;28;20290;-81
2022/05/11 12:28:00;;;;;;;8.30;2.10;;;;;;;;;;5098495;28;20085;-82
2022/05/11 12:30:28;;;;;;;13.23;2.30;;;;;;;;;;5101239;28;20266;-79
2022/05/11 12:32:59;;;;;;;7.45;1.70;;;;;;;;;;5088599;28;20457;-79
2022/05/11 12:35:37;;;;;;;7.43;1.75;;;;;;;;;;5066031;28;20408;-79
2022/05/11 12:38:05;;;;;;;5.75;1.90;;;;;;;;;;5089986;28;20533;-79
2022/05/11 12:40:46;;;;;;;9.70;2.20;;;;;;;;;;5092451;28;20404;-78
2022/05/11 12:43:38;;;;;;;10.23;2.25;;;;;;;;;;5077514;28;20176;-78
2022/05/11 12:46:06;;;;;;;6.57;1.55;;;;;;;;;;5081755;28;20412;-79
2022/05/11 12:48:34;;;;;;;10.50;2.10;;;;;;;;;;5100237;28;20067;-80
2022/05/11 12:51:06;;;;;;;10.43;2.22;;;;;;;;;;5091958;28;20070;-78
2022/05/11 12:53:34;;;;;;;7.82;1.83;;;;;;;;;;5098255;28;20396;-75
2022/05/11 12:56:08;;;;;;;10.32;2.75;;;;;;;;;;5084260;28;20032;-77
2022/05/11 12:58:35;;;;;;;8.50;1.88;;;;;;;;;;5087409;28;20035;-78
2022/05/11 13:01:07;;;;;;;9.77;1.95;;;;;;;;;;5096545;28;20494;-84
2022/05/11 13:03:43;;;;;;;9.75;2.20;;;;;;;;;;5074372;28;20434;-88
2022/05/11 13:06:16;;;;;;;9.75;2.28;;;;;;;;;;5092983;28;20058;-87
2022/05/11 13:08:44;;;;;;;9.35;2.15;;;;;;;;;;5076627;28;20068;-84
2022/05/11 13:11:13;;;;;;;8.05;2.17;;;;;;;;;;5100458;28;20052;-81
2022/05/11 13:13:42;;;;;;;10.43;2.33;;;;;;;;;;5098688;28;20052;-81
2022/05/11 13:16:10;;;;;;;5.63;1.70;;;;;;;;;;5091214;28;20039;-81
2022/05/11 13:18:38;;;;;;;10.20;2.38;;;;;;;;;;5112738;28;20096;-81
2022/05/11 13:21:07;;;;;;;9.10;2.55;;;;;;;;;;5102686;28;20055;-81
2022/05/11 13:23:33;;;;;;;10.07;2.35;;;;;;;;;;5092181;28;20381;-82
2022/05/11 13:26:01;;;;;;;12.82;3.00;;;;;;;;;;5067463;28;20128;-82
2022/05/11 13:28:32;;;;;;;10.13;2.30;;;;;;;;;;5086765;28;20035;-82
2022/05/11 13:31:00;;;;;;;9.50;2.75;;;;;;;;;;5101525;28;20035;-82
2022/05/11 13:33:36;;;;;;;7.55;2.72;;;;;;;;;;5097806;28;20560;-82
2022/05/11 13:36:11;;;;;;;11.15;2.83;;;;;;;;;;5107998;28;20537;-81
2022/05/11 13:38:38;;;;;;;14.23;3.35;;;;;;;;;;5100156;28;20031;-80
2022/05/11 13:41:07;;;;;;;10.65;2.75;;;;;;;;;;5099646;28;20044;-78
2022/05/11 13:43:34;;;;;;;9.00;2.45;;;;;;;;;;5074702;28;20044;-77
2022/05/11 13:46:01;;;;;;;12.45;2.80;;;;;;;;;;5083230;28;20040;-80
2022/05/11 13:48:35;;;;;;;9.13;2.13;;;;;;;;;;5098977;28;20042;-78
2022/05/11 13:51:07;;;;;;;10.68;2.13;;;;;;;;;;5098451;28;20442;-81
2022/05/11 13:53:34;;;;;;;9.00;2.30;;;;;;;;;;5109705;28;20516;-78
2022/05/11 13:56:11;;;;;;;9.27;2.10;;;;;;;;;;5095250;28;20380;-77
2022/05/11 13:58:37;;;;;;;10.90;2.58;;;;;;;;;;5072675;28;20435;-78
2022/05/11 14:01:05;;;;;;;7.78;2.00;;;;;;;;;;5071235;28;20579;-79
2022/05/11 14:03:34;;;;;;;6.80;2.03;;;;;;;;;;5105488;28;20089;-80
2022/05/11 14:06:03;;;;;;;8.10;1.83;;;;;;;;;;5090013;28;20127;-80
2022/05/11 14:08:29;;;;;;;8.10;2.30;;;;;;;;;;5101845;28;20324;-80
2022/05/11 14:10:56;;;;;;;9.30;2.00;;;;;;;;;;5095761;28;20591;-80
2022/05/11 14:13:22;;;;;;;8.10;2.15;;;;;;;;;;5095863;28;20047;-79
2022/05/11 14:15:49;;;;;;;9.32;2.30;;;;;;;;;;5090348;28;20420;-79
2022/05/11 14:18:19;;;;;;;10.85;2.65;;;;;;;;;;5093040;28;20036;-77
2022/05/11 14:20:45;;;;;;;10.50;2.58;;;;;;;;;;5112734;28;20101;-78
2022/05/11 14:23:12;;;;;;;9.90;2.50;;;;;;;;;;5112395;28;20047;-78
2022/05/11 14:25:38;;;;;;;8.68;2.30;;;;;;;;;;5100633;28;20043;-80
2022/05/11 14:28:04;;;;;;;9.18;2.72;;;;;;;;;;5089426;28;20071;-79
2022/05/11 14:30:31;;;;;;;8.13;2.13;;;;;;;;;;5088331;28;20392;-79
2022/05/11 14:32:57;;;;;;;10.20;2.25;;;;;;;;;;5110168;28;20043;-79
2022/05/11 14:35:25;;;;;;;9.40;2.20;;;;;;;;;;5097213;28;20083;-79
2022/05/11 14:37:51;;;;;;;11.32;2.67;;;;;;;;;;5089178;28;20045;-77
2022/05/11 14:40:20;;;;;;;9.50;2.40;;;;;;;;;;5079025;28;20044;-78
2022/05/11 14:42:46;;;;;;;10.57;2.00;;;;;;;;;;5110192;28;20039;-79
2022/05/11 14:45:12;;;;;;;8.35;2.60;;;;;;;;;;5100301;28;20043;-79
2022/05/11 14:47:41;;;;;;;12.18;2.45;;;;;;;;;;5089726;28;20050;-78
2022/05/11 14:50:17;;;;;;;7.35;2.20;;;;;;;;;;5095464;28;20043;-78
2022/05/11 14:52:43;;;;;;;9.85;2.08;;;;;;;;;;5063132;28;20040;-79
2022/05/11 14:55:09;;;;;;;8.18;2.30;;;;;;;;;;5087707;28;20036;-79
2022/05/11 15:03:05;;;;;;;7.70;2.65;;;;;;;;;;5088254;28;20349;-79
2022/05/11 15:05:31;;;;;;;9.20;2.13;;;;;;;;;;5087292;28;20050;-80
2022/05/11 15:07:58;;;;;;;8.30;2.10;;;;;;;;;;5085276;28;20040;-80
2022/05/11 15:10:24;;;;;;;8.75;2.35;;;;;;;;;;5072750;28;20078;-78
2022/05/11 15:15:35;;;;;;;;;;;;;;;;;;5085275;28;20051;-79
2022/05/11 15:18:05;;;;;;;8.90;2.65;;;;;;;;;;5089505;28;19919;-79
2022/05/11 15:20:31;;;;;;;10.48;2.80;;;;;;;;;;5087621;28;20044;-78
2022/05/11 15:22:58;;;;;;;11.25;2.35;;;;;;;;;;5088137;28;20043;-80
2022/05/11 15:25:24;;;;;;;9.50;2.75;;;;;;;;;;5085964;28;20040;-78
2022/05/11 15:27:50;;;;;;;6.82;2.08;;;;;;;;;;5088268;28;20082;-79
2022/05/11 15:30:17;;;;;;;10.95;2.38;;;;;;;;;;5084464;28;20453;-79
2022/05/11 15:32:44;;;;;;;7.35;2.05;;;;;;;;;;5081321;28;20384;-80